sensor_id;sensor_type;location;lat;lon;timestamp;pressure;altitude;pressure_sealevel;temperature
15062;BMP180;7630;50.306;8.566;2023-08-07T00:00:41;97341.00;;;13.10
15062;BMP180;7630;50.306;8.566;2023-08-07T00:04:43;97342.00;;;13.00
15062;BMP180;7630;50.306;8.566;2023-08-07T00:08:44;97343.00;;;13.00
15062;BMP180;7630;50.306;8.566;2023-08-07T00:12:45;97350.00;;;12.90
15062;BMP180;7630;50.306;8.566;2023-08-07T00:16:46;97340.00;;;12.40
15062;BMP180;7630;50.306;8.566;2023-08-07T00:20:47;97347.00;;;12.20
15062;BMP180;7630;50.306;8.566;2023-08-07T00:24:48;97345.00;;;12.80
15062;BMP180;7630;50.306;8.566;2023-08-07T00:28:49;97354.00;;;13.20
15062;BMP180;7630;50.306;8.566;2023-08-07T00:32:50;97349.00;;;12.90
15062;BMP180;7630;50.306;8.566;2023-08-07T00:36:51;97341.00;;;12.90
15062;BMP180;7630;50.306;8.566;2023-08-07T00:40:53;97345.00;;;12.90
15062;BMP180;7630;50.306;8.566;2023-08-07T00:44:54;97342.00;;;12.30
15062;BMP180;7630;50.306;8.566;2023-08-07T00:48:55;97341.00;;;12.10
15062;BMP180;7630;50.306;8.566;2023-08-07T00:52:57;97348.00;;;12.30
15062;BMP180;7630;50.306;8.566;2023-08-07T00:57:01;97305.00;;;12.60
15062;BMP180;7630;50.306;8.566;2023-08-07T01:01:04;97344.00;;;12.50
15062;BMP180;7630;50.306;8.566;2023-08-07T01:05:06;97342.00;;;11.90
15062;BMP180;7630;50.306;8.566;2023-08-07T01:09:07;97343.00;;;12.60
15062;BMP180;7630;50.306;8.566;2023-08-07T01:13:23;97355.00;;;12.20
15062;BMP180;7630;50.306;8.566;2023-08-07T01:17:23;97327.00;;;12.70
15062;BMP180;7630;50.306;8.566;2023-08-07T01:21:24;97347.00;;;13.00
15062;BMP180;7630;50.306;8.566;2023-08-07T01:25:25;97342.00;;;11.90
15062;BMP180;7630;50.306;8.566;2023-08-07T01:29:35;97338.00;;;12.50
15062;BMP180;7630;50.306;8.566;2023-08-07T01:33:35;97352.00;;;12.30
15062;BMP180;7630;50.306;8.566;2023-08-07T01:37:40;97358.00;;;12.60
15062;BMP180;7630;50.306;8.566;2023-08-07T01:41:42;97344.00;;;12.40
15062;BMP180;7630;50.306;8.566;2023-08-07T01:45:43;97351.00;;;12.60
15062;BMP180;7630;50.306;8.566;2023-08-07T01:49:44;97366.00;;;12.60
15062;BMP180;7630;50.306;8.566;2023-08-07T01:53:45;97361.00;;;12.70
15062;BMP180;7630;50.306;8.566;2023-08-07T01:57:48;97362.00;;;12.50
15062;BMP180;7630;50.306;8.566;2023-08-07T02:01:49;97355.00;;;12.70
15062;BMP180;7630;50.306;8.566;2023-08-07T02:05:51;97354.00;;;11.80
15062;BMP180;7630;50.306;8.566;2023-08-07T02:09:52;97355.00;;;12.60
15062;BMP180;7630;50.306;8.566;2023-08-07T02:13:53;97373.00;;;11.90
15062;BMP180;7630;50.306;8.566;2023-08-07T02:17:54;97374.00;;;12.40
15062;BMP180;7630;50.306;8.566;2023-08-07T02:21:55;97363.00;;;12.60
15062;BMP180;7630;50.306;8.566;2023-08-07T02:25:56;97363.00;;;12.40
15062;BMP180;7630;50.306;8.566;2023-08-07T02:29:57;97385.00;;;12.30
15062;BMP180;7630;50.306;8.566;2023-08-07T02:33:59;97367.00;;;12.20
15062;BMP180;7630;50.306;8.566;2023-08-07T02:38:00;97364.00;;;11.60
15062;BMP180;7630;50.306;8.566;2023-08-07T02:42:01;97370.00;;;12.20
15062;BMP180;7630;50.306;8.566;2023-08-07T02:46:02;97373.00;;;11.90
15062;BMP180;7630;50.306;8.566;2023-08-07T02:50:03;97375.00;;;11.90
15062;BMP180;7630;50.306;8.566;2023-08-07T02:54:05;97373.00;;;11.70
15062;BMP180;7630;50.306;8.566;2023-08-07T02:58:06;97373.00;;;12.50
15062;BMP180;7630;50.306;8.566;2023-08-07T03:02:07;97358.00;;;12.10
15062;BMP180;7630;50.306;8.566;2023-08-07T03:06:08;97366.00;;;12.10
15062;BMP180;7630;50.306;8.566;2023-08-07T03:10:10;97370.00;;;11.90
15062;BMP180;7630;50.306;8.566;2023-08-07T03:14:12;97371.00;;;12.00
15062;BMP180;7630;50.306;8.566;2023-08-07T03:18:13;97380.00;;;11.90
15062;BMP180;7630;50.306;8.566;2023-08-07T03:22:14;97389.00;;;12.00
15062;BMP180;7630;50.306;8.566;2023-08-07T03:26:15;97396.00;;;12.10
15062;BMP180;7630;50.306;8.566;2023-08-07T03:30:18;97381.00;;;12.30
15062;BMP180;7630;50.306;8.566;2023-08-07T03:34:19;97366.00;;;11.80
15062;BMP180;7630;50.306;8.566;2023-08-07T03:38:21;97397.00;;;12.10
15062;BMP180;7630;50.306;8.566;2023-08-07T03:42:22;97381.00;;;12.30
15062;BMP180;7630;50.306;8.566;2023-08-07T03:46:23;97372.00;;;11.80
15062;BMP180;7630;50.306;8.566;2023-08-07T03:50:24;97363.00;;;12.50
15062;BMP180;7630;50.306;8.566;2023-08-07T03:54:25;97355.00;;;12.10
15062;BMP180;7630;50.306;8.566;2023-08-07T03:58:26;97360.00;;;12.00
15062;BMP180;7630;50.306;8.566;2023-08-07T04:02:27;97370.00;;;11.90
15062;BMP180;7630;50.306;8.566;2023-08-07T04:06:30;97362.00;;;12.10
15062;BMP180;7630;50.306;8.566;2023-08-07T04:10:31;97362.00;;;11.70
15062;BMP180;7630;50.306;8.566;2023-08-07T04:14:32;97371.00;;;11.80
15062;BMP180;7630;50.306;8.566;2023-08-07T04:18:33;97346.00;;;11.70
15062;BMP180;7630;50.306;8.566;2023-08-07T04:22:34;97354.00;;;11.70
15062;BMP180;7630;50.306;8.566;2023-08-07T04:26:36;97359.00;;;11.50
15062;BMP180;7630;50.306;8.566;2023-08-07T04:30:37;97357.00;;;12.00
15062;BMP180;7630;50.306;8.566;2023-08-07T04:34:38;97351.00;;;11.60
15062;BMP180;7630;50.306;8.566;2023-08-07T04:38:40;97362.00;;;11.60
15062;BMP180;7630;50.306;8.566;2023-08-07T04:42:41;97380.00;;;12.10
15062;BMP180;7630;50.306;8.566;2023-08-07T04:46:42;97375.00;;;11.90
15062;BMP180;7630;50.306;8.566;2023-08-07T04:50:43;97389.00;;;12.10
15062;BMP180;7630;50.306;8.566;2023-08-07T04:54:44;97388.00;;;11.90
15062;BMP180;7630;50.306;8.566;2023-08-07T04:58:45;97389.00;;;11.70
15062;BMP180;7630;50.306;8.566;2023-08-07T05:02:47;97383.00;;;12.40
15062;BMP180;7630;50.306;8.566;2023-08-07T05:06:51;97396.00;;;12.40
15062;BMP180;7630;50.306;8.566;2023-08-07T05:10:52;97400.00;;;12.10
15062;BMP180;7630;50.306;8.566;2023-08-07T05:14:54;97417.00;;;11.80
15062;BMP180;7630;50.306;8.566;2023-08-07T05:18:55;97426.00;;;12.50
15062;BMP180;7630;50.306;8.566;2023-08-07T05:22:56;97448.00;;;12.80
15062;BMP180;7630;50.306;8.566;2023-08-07T05:26:57;97439.00;;;12.60
15062;BMP180;7630;50.306;8.566;2023-08-07T05:30:58;97441.00;;;11.90
15062;BMP180;7630;50.306;8.566;2023-08-07T05:35:00;97449.00;;;12.50
15062;BMP180;7630;50.306;8.566;2023-08-07T05:39:02;97444.00;;;12.40
15062;BMP180;7630;50.306;8.566;2023-08-07T05:43:04;97460.00;;;12.10
15062;BMP180;7630;50.306;8.566;2023-08-07T05:47:07;97463.00;;;12.50
15062;BMP180;7630;50.306;8.566;2023-08-07T05:51:08;97477.00;;;12.80
15062;BMP180;7630;50.306;8.566;2023-08-07T05:55:09;97461.00;;;12.80
15062;BMP180;7630;50.306;8.566;2023-08-07T05:59:10;97464.00;;;12.10
15062;BMP180;7630;50.306;8.566;2023-08-07T06:03:11;97466.00;;;12.50
15062;BMP180;7630;50.306;8.566;2023-08-07T06:07:13;97475.00;;;12.60
15062;BMP180;7630;50.306;8.566;2023-08-07T06:11:14;97471.00;;;13.20
15062;BMP180;7630;50.306;8.566;2023-08-07T06:15:16;97489.00;;;12.90
15062;BMP180;7630;50.306;8.566;2023-08-07T06:19:17;97470.00;;;12.90
15062;BMP180;7630;50.306;8.566;2023-08-07T06:23:20;97484.00;;;12.90
15062;BMP180;7630;50.306;8.566;2023-08-07T06:27:22;97482.00;;;12.40
15062;BMP180;7630;50.306;8.566;2023-08-07T06:31:23;97488.00;;;13.20
15062;BMP180;7630;50.306;8.566;2023-08-07T06:35:24;97488.00;;;12.50
15062;BMP180;7630;50.306;8.566;2023-08-07T06:39:25;97493.00;;;12.30
15062;BMP180;7630;50.306;8.566;2023-08-07T06:43:26;97492.00;;;12.60
15062;BMP180;7630;50.306;8.566;2023-08-07T06:47:27;97513.00;;;12.70
15062;BMP180;7630;50.306;8.566;2023-08-07T06:51:29;97504.00;;;12.20
15062;BMP180;7630;50.306;8.566;2023-08-07T06:55:30;97517.00;;;12.70
15062;BMP180;7630;50.306;8.566;2023-08-07T06:59:31;97519.00;;;12.30
15062;BMP180;7630;50.306;8.566;2023-08-07T07:03:32;97519.00;;;13.00
15062;BMP180;7630;50.306;8.566;2023-08-07T07:07:34;97527.00;;;12.10
15062;BMP180;7630;50.306;8.566;2023-08-07T07:11:35;97540.00;;;12.60
15062;BMP180;7630;50.306;8.566;2023-08-07T07:15:36;97546.00;;;13.00
15062;BMP180;7630;50.306;8.566;2023-08-07T07:19:37;97544.00;;;12.20
15062;BMP180;7630;50.306;8.566;2023-08-07T07:23:39;97543.00;;;13.20
15062;BMP180;7630;50.306;8.566;2023-08-07T07:27:40;97558.00;;;12.70
15062;BMP180;7630;50.306;8.566;2023-08-07T07:31:41;97568.00;;;13.20
15062;BMP180;7630;50.306;8.566;2023-08-07T07:35:43;97568.00;;;13.20
15062;BMP180;7630;50.306;8.566;2023-08-07T07:39:44;97563.00;;;12.60
15062;BMP180;7630;50.306;8.566;2023-08-07T07:43:46;97569.00;;;13.00
15062;BMP180;7630;50.306;8.566;2023-08-07T07:47:47;97579.00;;;13.30
15062;BMP180;7630;50.306;8.566;2023-08-07T07:51:48;97573.00;;;13.30
15062;BMP180;7630;50.306;8.566;2023-08-07T07:55:50;97595.00;;;13.30
15062;BMP180;7630;50.306;8.566;2023-08-07T07:59:51;97598.00;;;13.40
15062;BMP180;7630;50.306;8.566;2023-08-07T08:03:52;97604.00;;;13.50
15062;BMP180;7630;50.306;8.566;2023-08-07T08:07:53;97615.00;;;12.80
15062;BMP180;7630;50.306;8.566;2023-08-07T08:11:55;97613.00;;;13.30
15062;BMP180;7630;50.306;8.566;2023-08-07T08:15:57;97612.00;;;13.50
15062;BMP180;7630;50.306;8.566;2023-08-07T08:19:58;97616.00;;;12.50
15062;BMP180;7630;50.306;8.566;2023-08-07T08:24:00;97622.00;;;12.70
15062;BMP180;7630;50.306;8.566;2023-08-07T08:28:01;97630.00;;;13.10
15062;BMP180;7630;50.306;8.566;2023-08-07T08:32:02;97633.00;;;13.20
15062;BMP180;7630;50.306;8.566;2023-08-07T08:36:04;97635.00;;;13.30
15062;BMP180;7630;50.306;8.566;2023-08-07T08:40:06;97643.00;;;13.00
15062;BMP180;7630;50.306;8.566;2023-08-07T08:44:10;97645.00;;;13.00
15062;BMP180;7630;50.306;8.566;2023-08-07T08:48:16;97652.00;;;13.50
15062;BMP180;7630;50.306;8.566;2023-08-07T08:52:19;97653.00;;;13.30
15062;BMP180;7630;50.306;8.566;2023-08-07T08:56:20;97645.00;;;13.20
15062;BMP180;7630;50.306;8.566;2023-08-07T09:00:23;97662.00;;;12.80
15062;BMP180;7630;50.306;8.566;2023-08-07T09:04:26;97652.00;;;12.50
15062;BMP180;7630;50.306;8.566;2023-08-07T09:08:29;97663.00;;;12.20
15062;BMP180;7630;50.306;8.566;2023-08-07T09:12:32;97669.00;;;12.80
15062;BMP180;7630;50.306;8.566;2023-08-07T09:16:34;97652.00;;;12.50
15062;BMP180;7630;50.306;8.566;2023-08-07T09:20:37;97655.00;;;12.50
15062;BMP180;7630;50.306;8.566;2023-08-07T09:24:41;97666.00;;;12.40
15062;BMP180;7630;50.306;8.566;2023-08-07T09:28:43;97668.00;;;12.70
15062;BMP180;7630;50.306;8.566;2023-08-07T09:32:47;97692.00;;;13.00
15062;BMP180;7630;50.306;8.566;2023-08-07T09:36:48;97693.00;;;12.50
15062;BMP180;7630;50.306;8.566;2023-08-07T09:40:50;97694.00;;;12.20
15062;BMP180;7630;50.306;8.566;2023-08-07T09:44:51;97691.00;;;13.60
15062;BMP180;7630;50.306;8.566;2023-08-07T09:48:57;97698.00;;;13.50
15062;BMP180;7630;50.306;8.566;2023-08-07T09:52:58;97703.00;;;13.50
15062;BMP180;7630;50.306;8.566;2023-08-07T09:57:01;97695.00;;;13.00
15062;BMP180;7630;50.306;8.566;2023-08-07T10:01:03;97708.00;;;13.50
15062;BMP180;7630;50.306;8.566;2023-08-07T10:05:06;97702.00;;;14.10
15062;BMP180;7630;50.306;8.566;2023-08-07T10:09:09;97705.00;;;13.00
15062;BMP180;7630;50.306;8.566;2023-08-07T10:13:12;97718.00;;;13.50
15062;BMP180;7630;50.306;8.566;2023-08-07T10:17:16;97712.00;;;13.20
15062;BMP180;7630;50.306;8.566;2023-08-07T10:21:19;97715.00;;;12.60
15062;BMP180;7630;50.306;8.566;2023-08-07T10:25:23;97716.00;;;12.80
15062;BMP180;7630;50.306;8.566;2023-08-07T10:29:25;97723.00;;;13.20
15062;BMP180;7630;50.306;8.566;2023-08-07T10:33:28;97712.00;;;13.60
15062;BMP180;7630;50.306;8.566;2023-08-07T10:37:41;97728.00;;;13.10
15062;BMP180;7630;50.306;8.566;2023-08-07T10:41:45;97729.00;;;13.70
15062;BMP180;7630;50.306;8.566;2023-08-07T10:45:46;97736.00;;;13.60
15062;BMP180;7630;50.306;8.566;2023-08-07T10:49:47;97738.00;;;14.30
15062;BMP180;7630;50.306;8.566;2023-08-07T10:53:49;97748.00;;;13.70
15062;BMP180;7630;50.306;8.566;2023-08-07T10:57:53;97747.00;;;13.90
15062;BMP180;7630;50.306;8.566;2023-08-07T11:01:55;97773.00;;;13.90
15062;BMP180;7630;50.306;8.566;2023-08-07T11:05:57;97756.00;;;13.50
15062;BMP180;7630;50.306;8.566;2023-08-07T11:09:59;97752.00;;;14.20
15062;BMP180;7630;50.306;8.566;2023-08-07T11:14:00;97767.00;;;14.10
15062;BMP180;7630;50.306;8.566;2023-08-07T11:18:02;97752.00;;;14.40
15062;BMP180;7630;50.306;8.566;2023-08-07T11:22:06;97768.00;;;14.00
15062;BMP180;7630;50.306;8.566;2023-08-07T11:26:09;97759.00;;;14.30
15062;BMP180;7630;50.306;8.566;2023-08-07T11:30:11;97775.00;;;14.60
15062;BMP180;7630;50.306;8.566;2023-08-07T11:34:13;97787.00;;;15.10
15062;BMP180;7630;50.306;8.566;2023-08-07T11:38:36;97785.00;;;14.80
15062;BMP180;7630;50.306;8.566;2023-08-07T11:42:34;97781.00;;;14.10
15062;BMP180;7630;50.306;8.566;2023-08-07T11:46:35;97784.00;;;14.30
15062;BMP180;7630;50.306;8.566;2023-08-07T11:50:37;97780.00;;;14.80
15062;BMP180;7630;50.306;8.566;2023-08-07T11:54:38;97794.00;;;14.60
15062;BMP180;7630;50.306;8.566;2023-08-07T11:58:42;97777.00;;;15.60
15062;BMP180;7630;50.306;8.566;2023-08-07T12:02:44;97808.00;;;14.90
15062;BMP180;7630;50.306;8.566;2023-08-07T12:06:55;97811.00;;;14.60
15062;BMP180;7630;50.306;8.566;2023-08-07T12:10:57;97826.00;;;14.60
15062;BMP180;7630;50.306;8.566;2023-08-07T12:14:59;97829.00;;;15.10
15062;BMP180;7630;50.306;8.566;2023-08-07T12:19:01;97835.00;;;15.80
15062;BMP180;7630;50.306;8.566;2023-08-07T12:23:02;97835.00;;;15.60
15062;BMP180;7630;50.306;8.566;2023-08-07T12:27:04;97833.00;;;16.40
15062;BMP180;7630;50.306;8.566;2023-08-07T12:31:06;97824.00;;;18.10
15062;BMP180;7630;50.306;8.566;2023-08-07T12:35:08;97823.00;;;18.20
15062;BMP180;7630;50.306;8.566;2023-08-07T12:39:11;97830.00;;;19.40
15062;BMP180;7630;50.306;8.566;2023-08-07T12:43:12;97825.00;;;18.30
15062;BMP180;7630;50.306;8.566;2023-08-07T12:47:14;97769.00;;;18.30
15062;BMP180;7630;50.306;8.566;2023-08-07T12:51:16;97820.00;;;18.60
15062;BMP180;7630;50.306;8.566;2023-08-07T12:55:18;97814.00;;;18.10
15062;BMP180;7630;50.306;8.566;2023-08-07T12:59:19;97829.00;;;18.80
15062;BMP180;7630;50.306;8.566;2023-08-07T13:03:20;97831.00;;;16.80
15062;BMP180;7630;50.306;8.566;2023-08-07T13:07:22;97832.00;;;17.30
15062;BMP180;7630;50.306;8.566;2023-08-07T13:11:23;97826.00;;;18.30
15062;BMP180;7630;50.306;8.566;2023-08-07T13:15:24;97837.00;;;20.30
15062;BMP180;7630;50.306;8.566;2023-08-07T13:19:26;97832.00;;;20.40
15062;BMP180;7630;50.306;8.566;2023-08-07T13:23:27;97630.00;;;22.10
15062;BMP180;7630;50.306;8.566;2023-08-07T13:27:29;97839.00;;;21.30
15062;BMP180;7630;50.306;8.566;2023-08-07T13:31:31;97832.00;;;21.40
15062;BMP180;7630;50.306;8.566;2023-08-07T13:35:32;97839.00;;;20.90
15062;BMP180;7630;50.306;8.566;2023-08-07T13:39:33;97841.00;;;20.90
15062;BMP180;7630;50.306;8.566;2023-08-07T13:43:34;97837.00;;;20.60
15062;BMP180;7630;50.306;8.566;2023-08-07T13:47:36;97842.00;;;21.20
15062;BMP180;7630;50.306;8.566;2023-08-07T13:51:38;97844.00;;;20.50
15062;BMP180;7630;50.306;8.566;2023-08-07T13:55:39;97842.00;;;19.80
15062;BMP180;7630;50.306;8.566;2023-08-07T13:59:41;97835.00;;;19.90
15062;BMP180;7630;50.306;8.566;2023-08-07T14:03:42;97838.00;;;21.80
15062;BMP180;7630;50.306;8.566;2023-08-07T14:07:43;97841.00;;;21.20
15062;BMP180;7630;50.306;8.566;2023-08-07T14:11:44;97856.00;;;22.20
15062;BMP180;7630;50.306;8.566;2023-08-07T14:15:45;97833.00;;;21.80
15062;BMP180;7630;50.306;8.566;2023-08-07T14:19:47;97849.00;;;21.00
15062;BMP180;7630;50.306;8.566;2023-08-07T14:23:48;97852.00;;;19.90
15062;BMP180;7630;50.306;8.566;2023-08-07T14:27:50;97848.00;;;20.40
15062;BMP180;7630;50.306;8.566;2023-08-07T14:31:51;97849.00;;;21.70
15062;BMP180;7630;50.306;8.566;2023-08-07T14:35:53;97855.00;;;21.70
15062;BMP180;7630;50.306;8.566;2023-08-07T14:39:54;97854.00;;;22.70
15062;BMP180;7630;50.306;8.566;2023-08-07T14:43:55;97855.00;;;23.80
15062;BMP180;7630;50.306;8.566;2023-08-07T14:47:56;97854.00;;;22.60
15062;BMP180;7630;50.306;8.566;2023-08-07T14:51:57;97852.00;;;22.50
15062;BMP180;7630;50.306;8.566;2023-08-07T14:55:59;97857.00;;;22.60
15062;BMP180;7630;50.306;8.566;2023-08-07T15:00:00;97873.00;;;23.30
15062;BMP180;7630;50.306;8.566;2023-08-07T15:04:02;97869.00;;;22.40
15062;BMP180;7630;50.306;8.566;2023-08-07T15:08:03;97872.00;;;22.40
15062;BMP180;7630;50.306;8.566;2023-08-07T15:12:05;97877.00;;;21.10
15062;BMP180;7630;50.306;8.566;2023-08-07T15:16:07;97876.00;;;20.60
15062;BMP180;7630;50.306;8.566;2023-08-07T15:20:09;97883.00;;;20.70
15062;BMP180;7630;50.306;8.566;2023-08-07T15:24:11;97524.00;;;20.50
15062;BMP180;7630;50.306;8.566;2023-08-07T15:28:12;97901.00;;;19.90
15062;BMP180;7630;50.306;8.566;2023-08-07T15:32:13;97883.00;;;20.20
15062;BMP180;7630;50.306;8.566;2023-08-07T15:36:15;97880.00;;;19.00
15062;BMP180;7630;50.306;8.566;2023-08-07T15:40:16;97896.00;;;18.60
15062;BMP180;7630;50.306;8.566;2023-08-07T15:44:17;97894.00;;;19.40
15062;BMP180;7630;50.306;8.566;2023-08-07T15:48:19;97899.00;;;19.70
15062;BMP180;7630;50.306;8.566;2023-08-07T15:52:20;97891.00;;;20.00
15062;BMP180;7630;50.306;8.566;2023-08-07T15:56:22;97888.00;;;19.50
15062;BMP180;7630;50.306;8.566;2023-08-07T16:00:23;97894.00;;;20.50
15062;BMP180;7630;50.306;8.566;2023-08-07T16:04:25;97887.00;;;20.60
15062;BMP180;7630;50.306;8.566;2023-08-07T16:08:26;97891.00;;;20.60
15062;BMP180;7630;50.306;8.566;2023-08-07T16:12:27;97896.00;;;21.20
15062;BMP180;7630;50.306;8.566;2023-08-07T16:16:28;97887.00;;;20.70
15062;BMP180;7630;50.306;8.566;2023-08-07T16:20:30;97902.00;;;20.10
15062;BMP180;7630;50.306;8.566;2023-08-07T16:24:32;97916.00;;;20.00
15062;BMP180;7630;50.306;8.566;2023-08-07T16:28:33;97946.00;;;17.30
15062;BMP180;7630;50.306;8.566;2023-08-07T16:32:36;97935.00;;;16.30
15062;BMP180;7630;50.306;8.566;2023-08-07T16:36:38;97929.00;;;15.90
15062;BMP180;7630;50.306;8.566;2023-08-07T16:40:39;97930.00;;;16.50
15062;BMP180;7630;50.306;8.566;2023-08-07T16:44:40;97942.00;;;17.40
15062;BMP180;7630;50.306;8.566;2023-08-07T16:48:41;97930.00;;;17.80
15062;BMP180;7630;50.306;8.566;2023-08-07T16:52:42;97925.00;;;17.90
15062;BMP180;7630;50.306;8.566;2023-08-07T16:56:43;97935.00;;;18.40
15062;BMP180;7630;50.306;8.566;2023-08-07T17:00:44;97928.00;;;18.80
15062;BMP180;7630;50.306;8.566;2023-08-07T17:04:46;97930.00;;;18.40
15062;BMP180;7630;50.306;8.566;2023-08-07T17:08:47;97918.00;;;18.40
15062;BMP180;7630;50.306;8.566;2023-08-07T17:12:50;97924.00;;;18.60
15062;BMP180;7630;50.306;8.566;2023-08-07T17:16:51;97920.00;;;19.30
15062;BMP180;7630;50.306;8.566;2023-08-07T17:20:52;97921.00;;;20.30
15062;BMP180;7630;50.306;8.566;2023-08-07T17:24:53;97921.00;;;20.20
15062;BMP180;7630;50.306;8.566;2023-08-07T17:28:54;97910.00;;;18.80
15062;BMP180;7630;50.306;8.566;2023-08-07T17:32:57;97918.00;;;19.40
15062;BMP180;7630;50.306;8.566;2023-08-07T17:36:58;97913.00;;;19.60
15062;BMP180;7630;50.306;8.566;2023-08-07T17:41:00;97920.00;;;19.20
15062;BMP180;7630;50.306;8.566;2023-08-07T17:45:01;97922.00;;;18.30
15062;BMP180;7630;50.306;8.566;2023-08-07T17:49:03;97923.00;;;18.90
15062;BMP180;7630;50.306;8.566;2023-08-07T17:53:04;97917.00;;;19.00
15062;BMP180;7630;50.306;8.566;2023-08-07T17:57:06;97917.00;;;19.40
15062;BMP180;7630;50.306;8.566;2023-08-07T18:01:07;97920.00;;;19.80
15062;BMP180;7630;50.306;8.566;2023-08-07T18:05:08;97916.00;;;19.60
15062;BMP180;7630;50.306;8.566;2023-08-07T18:09:14;97932.00;;;19.10
15062;BMP180;7630;50.306;8.566;2023-08-07T18:13:15;97929.00;;;19.70
15062;BMP180;7630;50.306;8.566;2023-08-07T18:17:16;97930.00;;;19.70
15062;BMP180;7630;50.306;8.566;2023-08-07T18:21:17;97929.00;;;19.40
15062;BMP180;7630;50.306;8.566;2023-08-07T18:25:18;97930.00;;;19.40
15062;BMP180;7630;50.306;8.566;2023-08-07T18:29:20;97935.00;;;19.20
15062;BMP180;7630;50.306;8.566;2023-08-07T18:33:21;97935.00;;;18.90
15062;BMP180;7630;50.306;8.566;2023-08-07T18:37:22;97927.00;;;18.90
15062;BMP180;7630;50.306;8.566;2023-08-07T18:41:23;97933.00;;;18.70
15062;BMP180;7630;50.306;8.566;2023-08-07T18:45:24;97914.00;;;18.70
15062;BMP180;7630;50.306;8.566;2023-08-07T18:49:25;97946.00;;;18.70
15062;BMP180;7630;50.306;8.566;2023-08-07T18:53:26;97936.00;;;18.60
15062;BMP180;7630;50.306;8.566;2023-08-07T18:57:27;97942.00;;;18.50
15062;BMP180;7630;50.306;8.566;2023-08-07T19:01:29;97938.00;;;18.60
15062;BMP180;7630;50.306;8.566;2023-08-07T19:05:31;97942.00;;;18.40
15062;BMP180;7630;50.306;8.566;2023-08-07T19:09:32;97947.00;;;18.60
15062;BMP180;7630;50.306;8.566;2023-08-07T19:13:33;97951.00;;;18.40
15062;BMP180;7630;50.306;8.566;2023-08-07T19:17:34;97945.00;;;18.20
15062;BMP180;7630;50.306;8.566;2023-08-07T19:21:35;97946.00;;;18.10
15062;BMP180;7630;50.306;8.566;2023-08-07T19:25:37;97951.00;;;17.90
15062;BMP180;7630;50.306;8.566;2023-08-07T19:29:38;97954.00;;;17.80
15062;BMP180;7630;50.306;8.566;2023-08-07T19:33:39;97961.00;;;17.80
15062;BMP180;7630;50.306;8.566;2023-08-07T19:37:42;97963.00;;;17.30
15062;BMP180;7630;50.306;8.566;2023-08-07T19:41:43;97958.00;;;17.70
15062;BMP180;7630;50.306;8.566;2023-08-07T19:45:44;97955.00;;;17.80
15062;BMP180;7630;50.306;8.566;2023-08-07T19:49:45;97956.00;;;17.90
15062;BMP180;7630;50.306;8.566;2023-08-07T19:53:46;97959.00;;;18.10
15062;BMP180;7630;50.306;8.566;2023-08-07T19:57:49;97964.00;;;18.00
15062;BMP180;7630;50.306;8.566;2023-08-07T20:01:50;97963.00;;;18.10
15062;BMP180;7630;50.306;8.566;2023-08-07T20:05:51;97961.00;;;18.00
15062;BMP180;7630;50.306;8.566;2023-08-07T20:09:53;97957.00;;;18.10
15062;BMP180;7630;50.306;8.566;2023-08-07T20:13:54;97960.00;;;18.10
15062;BMP180;7630;50.306;8.566;2023-08-07T20:17:55;97951.00;;;18.10
15062;BMP180;7630;50.306;8.566;2023-08-07T20:21:56;97955.00;;;18.10
15062;BMP180;7630;50.306;8.566;2023-08-07T20:25:58;97977.00;;;17.60
15062;BMP180;7630;50.306;8.566;2023-08-07T20:29:59;97982.00;;;14.70
15062;BMP180;7630;50.306;8.566;2023-08-07T20:34:00;97966.00;;;14.70
15062;BMP180;7630;50.306;8.566;2023-08-07T20:38:01;97968.00;;;16.00
15062;BMP180;7630;50.306;8.566;2023-08-07T20:42:03;97954.00;;;15.90
15062;BMP180;7630;50.306;8.566;2023-08-07T20:46:04;97948.00;;;16.10
15062;BMP180;7630;50.306;8.566;2023-08-07T20:50:06;97947.00;;;16.30
15062;BMP180;7630;50.306;8.566;2023-08-07T20:54:07;97950.00;;;16.00
15062;BMP180;7630;50.306;8.566;2023-08-07T20:58:09;97942.00;;;16.70
15062;BMP180;7630;50.306;8.566;2023-08-07T21:02:12;97944.00;;;16.90
15062;BMP180;7630;50.306;8.566;2023-08-07T21:06:13;97934.00;;;16.50
15062;BMP180;7630;50.306;8.566;2023-08-07T21:10:14;97938.00;;;16.50
15062;BMP180;7630;50.306;8.566;2023-08-07T21:14:15;97946.00;;;16.20
15062;BMP180;7630;50.306;8.566;2023-08-07T21:18:16;97942.00;;;16.10
15062;BMP180;7630;50.306;8.566;2023-08-07T21:22:18;97943.00;;;16.30
15062;BMP180;7630;50.306;8.566;2023-08-07T21:26:19;97944.00;;;16.60
15062;BMP180;7630;50.306;8.566;2023-08-07T21:30:20;97937.00;;;16.30
15062;BMP180;7630;50.306;8.566;2023-08-07T21:34:21;97926.00;;;16.40
15062;BMP180;7630;50.306;8.566;2023-08-07T21:38:22;97925.00;;;16.30
15062;BMP180;7630;50.306;8.566;2023-08-07T21:42:24;97923.00;;;16.30
15062;BMP180;7630;50.306;8.566;2023-08-07T21:46:25;97915.00;;;16.20
15062;BMP180;7630;50.306;8.566;2023-08-07T21:50:26;97912.00;;;16.30
15062;BMP180;7630;50.306;8.566;2023-08-07T21:54:27;97907.00;;;16.00
15062;BMP180;7630;50.306;8.566;2023-08-07T21:58:28;97915.00;;;16.00
15062;BMP180;7630;50.306;8.566;2023-08-07T22:02:30;97924.00;;;15.60
15062;BMP180;7630;50.306;8.566;2023-08-07T22:06:31;97915.00;;;15.60
15062;BMP180;7630;50.306;8.566;2023-08-07T22:10:32;97908.00;;;15.40
15062;BMP180;7630;50.306;8.566;2023-08-07T22:14:33;97906.00;;;15.20
15062;BMP180;7630;50.306;8.566;2023-08-07T22:18:35;97905.00;;;15.10
15062;BMP180;7630;50.306;8.566;2023-08-07T22:22:36;97895.00;;;15.40
15062;BMP180;7630;50.306;8.566;2023-08-07T22:26:38;97905.00;;;15.60
15062;BMP180;7630;50.306;8.566;2023-08-07T22:30:39;97909.00;;;15.50
15062;BMP180;7630;50.306;8.566;2023-08-07T22:34:40;97912.00;;;15.40
15062;BMP180;7630;50.306;8.566;2023-08-07T22:38:41;97910.00;;;15.50
15062;BMP180;7630;50.306;8.566;2023-08-07T22:42:42;97904.00;;;15.40
15062;BMP180;7630;50.306;8.566;2023-08-07T22:46:44;97889.00;;;15.20
15062;BMP180;7630;50.306;8.566;2023-08-07T22:50:45;97900.00;;;15.50
15062;BMP180;7630;50.306;8.566;2023-08-07T22:54:46;97892.00;;;15.40
15062;BMP180;7630;50.306;8.566;2023-08-07T22:58:48;97897.00;;;15.40
15062;BMP180;7630;50.306;8.566;2023-08-07T23:02:49;97900.00;;;15.90
15062;BMP180;7630;50.306;8.566;2023-08-07T23:11:07;97899.00;;;16.00
15062;BMP180;7630;50.306;8.566;2023-08-07T23:15:09;97901.00;;;15.80
15062;BMP180;7630;50.306;8.566;2023-08-07T23:19:10;97901.00;;;15.80
15062;BMP180;7630;50.306;8.566;2023-08-07T23:23:12;97893.00;;;15.60
15062;BMP180;7630;50.306;8.566;2023-08-07T23:27:13;97898.00;;;15.50
15062;BMP180;7630;50.306;8.566;2023-08-07T23:31:14;97889.00;;;15.80
15062;BMP180;7630;50.306;8.566;2023-08-07T23:35:16;97883.00;;;15.80